Time,TemperatureF,DewpointF,PressureIn,WindDirection,WindDirectionDegrees,WindSpeedMPH,WindSpeedGustMPH,Humidity,HourlyPrecipIn,Conditions,Clouds,dailyrainin,SoftwareType,DateUTC
2013-05-26 00:01:00,72.0,22.0,29.71,ESE,104,2.0,4.0,15,0.00,,,0.00,,2013-05-26 06:01:00,
2013-05-26 00:12:00,72.0,22.0,29.71,ESE,104,2.0,4.0,15,0.00,,,0.00,,2013-05-26 06:12:00,
2013-05-26 00:22:00,71.0,23.0,29.71,ESE,113,1.0,3.0,16,0.00,,,0.00,,2013-05-26 06:22:00,
2013-05-26 00:32:00,71.0,24.0,29.72,SE,127,1.0,2.0,17,0.00,,,0.00,,2013-05-26 06:32:00,
2013-05-26 00:42:00,71.0,24.0,29.72,SE,127,1.0,2.0,17,0.00,,,0.00,,2013-05-26 06:42:00,
2013-05-26 00:52:00,70.0,22.0,29.72,ESE,110,2.0,3.0,16,0.00,,,0.00,,2013-05-26 06:52:00,
2013-05-26 01:01:00,70.0,22.0,29.72,ESE,113,1.0,2.0,16,0.00,,,0.00,,2013-05-26 07:01:00,
2013-05-26 01:11:00,70.0,22.0,29.72,ESE,113,1.0,2.0,16,0.00,,,0.00,,2013-05-26 07:11:00,
2013-05-26 01:21:00,69.0,21.0,29.72,East,90,0.0,2.0,16,0.00,,,0.00,,2013-05-26 07:21:00,
2013-05-26 01:31:00,69.0,22.0,29.72,ESE,113,1.0,1.0,17,0.00,,,0.00,,2013-05-26 07:31:00,
2013-05-26 01:42:00,69.0,22.0,29.72,ESE,113,1.0,1.0,17,0.00,,,0.00,,2013-05-26 07:42:00,
2013-05-26 01:52:00,68.0,22.0,29.72,East,90,0.0,1.0,17,0.00,,,0.00,,2013-05-26 07:52:00,
2013-05-26 02:01:00,66.0,21.0,29.72,ESE,105,2.0,2.0,18,0.00,,,0.00,,2013-05-26 08:01:00,
2013-05-26 02:12:00,66.0,21.0,29.72,ESE,105,2.0,2.0,18,0.00,,,0.00,,2013-05-26 08:12:00,
2013-05-26 02:21:00,65.0,22.0,29.73,East,96,1.0,2.0,19,0.00,,,0.00,,2013-05-26 08:21:00,
2013-05-26 02:32:00,65.0,22.0,29.73,ESE,106,1.0,3.0,19,0.00,,,0.00,,2013-05-26 08:32:00,
2013-05-26 02:42:00,65.0,22.0,29.73,ESE,106,1.0,3.0,19,0.00,,,0.00,,2013-05-26 08:42:00,
2013-05-26 02:53:00,65.0,24.0,29.73,East,90,1.0,2.0,21,0.00,,,0.00,,2013-05-26 08:53:00,
2013-05-26 03:01:00,65.0,24.0,29.74,SE,129,1.0,2.0,21,0.00,,,0.00,,2013-05-26 09:01:00,
2013-05-26 03:11:00,64.0,24.0,29.74,SE,135,0.0,2.0,22,0.00,,,0.00,,2013-05-26 09:11:00,
2013-05-26 03:21:00,64.0,24.0,29.74,SE,135,0.0,2.0,22,0.00,,,0.00,,2013-05-26 09:21:00,
2013-05-26 03:33:00,63.0,24.0,29.75,East,90,0.0,3.0,22,0.00,,,0.00,,2013-05-26 09:33:00,
2013-05-26 03:42:00,63.0,24.0,29.75,East,90,0.0,3.0,22,0.00,,,0.00,,2013-05-26 09:42:00,
2013-05-26 03:52:00,63.0,24.0,29.75,East,90,1.0,3.0,22,0.00,,,0.00,,2013-05-26 09:52:00,
2013-05-26 04:02:00,62.0,23.0,29.75,East,90,1.0,2.0,22,0.00,,,0.00,,2013-05-26 10:02:00,
2013-05-26 04:12:00,62.0,23.0,29.75,East,90,1.0,2.0,22,0.00,,,0.00,,2013-05-26 10:12:00,
2013-05-26 04:23:00,62.0,23.0,29.76,SE,135,1.0,1.0,22,0.00,,,0.00,,2013-05-26 10:23:00,
2013-05-26 04:32:00,61.0,22.0,29.76,WSW,248,1.0,1.0,22,0.00,,,0.00,,2013-05-26 10:32:00,
2013-05-26 04:42:00,60.0,22.0,29.76,ENE,68,0.0,1.0,23,0.00,,,0.00,,2013-05-26 10:42:00,
2013-05-26 04:52:00,60.0,22.0,29.76,ENE,68,0.0,1.0,23,0.00,,,0.00,,2013-05-26 10:52:00,
2013-05-26 05:03:00,60.0,22.0,29.76,East,90,1.0,2.0,23,0.00,,,0.00,,2013-05-26 11:03:00,
2013-05-26 05:11:00,60.0,22.0,29.76,East,90,1.0,2.0,23,0.00,,,0.00,,2013-05-26 11:11:00,
2013-05-26 05:22:00,59.0,21.0,29.76,ESE,113,1.0,2.0,23,0.00,,,0.00,,2013-05-26 11:22:00,
2013-05-26 05:32:00,59.0,21.0,29.76,East,90,1.0,2.0,23,0.00,,,0.00,,2013-05-26 11:32:00,
2013-05-26 05:42:00,59.0,21.0,29.76,East,90,1.0,2.0,23,0.00,,,0.00,,2013-05-26 11:42:00,
2013-05-26 05:52:00,59.0,22.0,29.76,ESE,110,1.0,3.0,24,0.00,,,0.00,,2013-05-26 11:52:00,
2013-05-26 06:01:00,59.0,22.0,29.76,East,90,1.0,3.0,24,0.00,,,0.00,,2013-05-26 12:01:00,
2013-05-26 06:12:00,59.0,22.0,29.76,East,90,1.0,3.0,24,0.00,,,0.00,,2013-05-26 12:12:00,
2013-05-26 06:21:00,58.0,21.0,29.76,SW,223,1.0,2.0,24,0.00,,,0.00,,2013-05-26 12:21:00,
2013-05-26 06:32:00,57.0,21.0,29.76,ESE,113,1.0,2.0,24,0.00,,,0.00,,2013-05-26 12:32:00,
2013-05-26 06:42:00,57.0,21.0,29.76,ESE,113,1.0,2.0,24,0.00,,,0.00,,2013-05-26 12:42:00,
2013-05-26 06:52:00,57.0,22.0,29.77,ESE,109,2.0,2.0,25,0.00,,,0.00,,2013-05-26 12:52:00,
2013-05-26 07:02:00,58.0,22.0,29.77,East,100,1.0,3.0,25,0.00,,,0.00,,2013-05-26 13:02:00,
2013-05-26 07:11:00,58.0,22.0,29.77,East,100,1.0,3.0,25,0.00,,,0.00,,2013-05-26 13:11:00,
2013-05-26 07:21:00,59.0,22.0,29.77,East,89,2.0,3.0,24,0.00,,,0.00,,2013-05-26 13:21:00,
2013-05-26 07:32:00,60.0,23.0,29.78,East,90,0.0,3.0,24,0.00,,,0.00,,2013-05-26 13:32:00,
2013-05-26 07:42:00,61.0,25.0,29.78,NE,42,1.0,1.0,25,0.00,,,0.00,,2013-05-26 13:42:00,
2013-05-26 07:52:00,61.0,25.0,29.78,NE,42,1.0,1.0,25,0.00,,,0.00,,2013-05-26 13:52:00,
2013-05-26 08:02:00,63.0,27.0,29.78,ESE,105,2.0,2.0,25,0.00,,,0.00,,2013-05-26 14:02:00,
2013-05-26 08:11:00,63.0,27.0,29.78,ESE,105,2.0,2.0,25,0.00,,,0.00,,2013-05-26 14:11:00,
2013-05-26 08:21:00,65.0,25.0,29.78,SE,138,2.0,4.0,22,0.00,,,0.00,,2013-05-26 14:21:00,
2013-05-26 08:32:00,66.0,25.0,29.78,ESE,108,2.0,3.0,21,0.00,,,0.00,,2013-05-26 14:32:00,
2013-05-26 08:42:00,68.0,24.0,29.79,ESE,106,2.0,4.0,19,0.00,,,0.00,,2013-05-26 14:42:00,
2013-05-26 08:52:00,68.0,24.0,29.79,ESE,106,2.0,4.0,19,0.00,,,0.00,,2013-05-26 14:52:00,
2013-05-26 09:01:00,70.0,23.0,29.79,SSE,156,2.0,4.0,17,0.00,,,0.00,,2013-05-26 15:01:00,
2013-05-26 09:12:00,70.0,23.0,29.79,SSE,156,2.0,4.0,17,0.00,,,0.00,,2013-05-26 15:12:00,
2013-05-26 09:22:00,72.0,20.0,29.79,NE,43,1.0,3.0,14,0.00,,,0.00,,2013-05-26 15:22:00,
2013-05-26 09:33:00,73.0,19.0,29.79,West,281,1.0,3.0,13,0.00,,,0.00,,2013-05-26 15:33:00,
2013-05-26 09:43:00,73.0,19.0,29.79,WSW,237,3.0,4.0,13,0.00,,,0.00,,2013-05-26 15:43:00,
2013-05-26 09:53:00,73.0,19.0,29.79,WSW,237,3.0,4.0,13,0.00,,,0.00,,2013-05-26 15:53:00,
2013-05-26 10:03:00,75.0,19.0,29.78,SSW,206,2.0,4.0,12,0.00,,,0.00,,2013-05-26 16:03:00,
2013-05-26 10:12:00,77.0,18.0,29.78,West,275,2.0,3.0,11,0.00,,,0.00,,2013-05-26 16:12:00,
2013-05-26 10:23:00,77.0,18.0,29.78,West,275,2.0,3.0,11,0.00,,,0.00,,2013-05-26 16:23:00,
2013-05-26 10:33:00,78.0,19.0,29.78,SW,236,3.0,6.0,11,0.00,,,0.00,,2013-05-26 16:33:00,
2013-05-26 10:42:00,79.0,20.0,29.77,South,183,1.0,5.0,11,0.00,,,0.00,,2013-05-26 16:42:00,
2013-05-26 10:53:00,79.0,20.0,29.77,South,183,1.0,5.0,11,0.00,,,0.00,,2013-05-26 16:53:00,
2013-05-26 11:02:00,81.0,22.0,29.76,East,93,1.0,4.0,11,0.00,,,0.00,,2013-05-26 17:02:00,
2013-05-26 11:11:00,81.0,22.0,29.76,East,93,1.0,4.0,11,0.00,,,0.00,,2013-05-26 17:11:00,
2013-05-26 11:22:00,82.0,20.0,29.77,SSW,208,2.0,3.0,10,0.00,,,0.00,,2013-05-26 17:22:00,
2013-05-26 11:32:00,83.0,21.0,29.77,East,98,3.0,6.0,10,0.00,,,0.00,,2013-05-26 17:32:00,
2013-05-26 11:42:00,84.0,22.0,29.77,ESE,102,2.0,4.0,10,0.00,,,0.00,,2013-05-26 17:42:00,
2013-05-26 11:52:00,84.0,22.0,29.77,ESE,102,2.0,4.0,10,0.00,,,0.00,,2013-05-26 17:52:00,
2013-05-26 12:01:00,84.0,16.0,29.77,SSW,211,3.0,7.0,8,0.00,,,0.00,,2013-05-26 18:01:00,
2013-05-26 12:12:00,84.0,16.0,29.77,SSW,211,3.0,7.0,8,0.00,,,0.00,,2013-05-26 18:12:00,
2013-05-26 12:21:00,85.0,17.0,29.76,WSW,241,4.0,8.0,8,0.00,,,0.00,,2013-05-26 18:21:00,
2013-05-26 12:32:00,86.0,18.0,29.76,SW,228,7.0,10.0,8,0.00,,,0.00,,2013-05-26 18:32:00,
2013-05-26 12:42:00,87.0,19.0,29.75,SSW,198,1.0,9.0,8,0.00,,,0.00,,2013-05-26 18:42:00,
2013-05-26 12:52:00,87.0,19.0,29.75,SSW,198,1.0,9.0,8,0.00,,,0.00,,2013-05-26 18:52:00,
2013-05-26 13:01:00,87.0,16.0,29.74,SSW,201,4.0,9.0,7,0.00,,,0.00,,2013-05-26 19:01:00,
2013-05-26 13:11:00,87.0,16.0,29.74,SSW,201,4.0,9.0,7,0.00,,,0.00,,2013-05-26 19:11:00,
2013-05-26 13:22:00,88.0,16.0,29.74,West,274,4.0,7.0,7,0.00,,,0.00,,2013-05-26 19:22:00,
2013-05-26 13:32:00,89.0,17.0,29.73,South,181,6.0,9.0,7,0.00,,,0.00,,2013-05-26 19:32:00,
2013-05-26 13:42:00,90.0,18.0,29.72,West,263,3.0,5.0,7,0.00,,,0.00,,2013-05-26 19:42:00,
2013-05-26 13:52:00,90.0,18.0,29.72,West,263,3.0,5.0,7,0.00,,,0.00,,2013-05-26 19:52:00,
2013-05-26 14:02:00,90.0,14.0,29.71,South,170,6.0,9.0,6,0.00,,,0.00,,2013-05-26 20:02:00,
2013-05-26 14:11:00,90.0,14.0,29.71,South,170,6.0,9.0,6,0.00,,,0.00,,2013-05-26 20:11:00,
2013-05-26 14:22:00,90.0,18.0,29.71,SW,234,4.0,10.0,7,0.00,,,0.00,,2013-05-26 20:22:00,
2013-05-26 14:32:00,91.0,15.0,29.71,SSE,148,5.0,7.0,6,0.00,,,0.00,,2013-05-26 20:32:00,
2013-05-26 14:41:00,91.0,15.0,29.70,North,4,4.0,5.0,6,0.00,,,0.00,,2013-05-26 20:41:00,
2013-05-26 14:52:00,91.0,15.0,29.70,North,4,4.0,5.0,6,0.00,,,0.00,,2013-05-26 20:52:00,
2013-05-26 15:01:00,90.0,14.0,29.70,SSW,193,4.0,5.0,6,0.00,,,0.00,,2013-05-26 21:01:00,
2013-05-26 15:11:00,90.0,14.0,29.70,SSW,193,4.0,5.0,6,0.00,,,0.00,,2013-05-26 21:11:00,
2013-05-26 15:22:00,91.0,15.0,29.68,SE,142,5.0,11.0,6,0.00,,,0.00,,2013-05-26 21:22:00,
2013-05-26 15:33:00,91.0,11.0,29.68,West,267,4.0,9.0,5,0.00,,,0.00,,2013-05-26 21:33:00,
2013-05-26 15:43:00,91.0,15.0,29.68,South,169,2.0,7.0,6,0.00,,,0.00,,2013-05-26 21:43:00,
2013-05-26 15:53:00,91.0,15.0,29.68,South,169,2.0,7.0,6,0.00,,,0.00,,2013-05-26 21:53:00,
2013-05-26 16:02:00,91.0,15.0,29.68,SSE,162,4.0,7.0,6,0.00,,,0.00,,2013-05-26 22:02:00,
2013-05-26 16:12:00,91.0,15.0,29.68,SSE,162,4.0,7.0,6,0.00,,,0.00,,2013-05-26 22:12:00,
2013-05-26 16:23:00,91.0,15.0,29.67,SW,230,7.0,9.0,6,0.00,,,0.00,,2013-05-26 22:23:00,
2013-05-26 16:33:00,91.0,15.0,29.66,NW,322,1.0,5.0,6,0.00,,,0.00,,2013-05-26 22:33:00,
2013-05-26 16:42:00,91.0,15.0,29.65,SSE,164,2.0,7.0,6,0.00,,,0.00,,2013-05-26 22:42:00,
2013-05-26 16:53:00,91.0,15.0,29.65,SSE,164,2.0,7.0,6,0.00,,,0.00,,2013-05-26 22:53:00,
2013-05-26 17:02:00,91.0,15.0,29.64,SSE,152,7.0,10.0,6,0.00,,,0.00,,2013-05-26 23:02:00,
2013-05-26 17:11:00,91.0,15.0,29.64,SSE,152,7.0,10.0,6,0.00,,,0.00,,2013-05-26 23:11:00,
2013-05-26 17:22:00,92.0,11.0,29.64,SSW,201,3.0,11.0,5,0.00,,,0.00,,2013-05-26 23:22:00,
2013-05-26 17:32:00,91.0,11.0,29.63,SSE,153,4.0,9.0,5,0.00,,,0.00,,2013-05-26 23:32:00,
2013-05-26 17:43:00,92.0,11.0,29.63,SSW,211,3.0,8.0,5,0.00,,,0.00,,2013-05-26 23:43:00,
2013-05-26 17:51:00,92.0,11.0,29.63,SSW,211,3.0,8.0,5,0.00,,,0.00,,2013-05-26 23:51:00,
2013-05-26 18:02:00,93.0,7.0,29.62,South,184,3.0,13.0,4,0.00,,,0.00,,2013-05-27 00:02:00,
2013-05-26 18:11:00,93.0,7.0,29.62,South,184,3.0,13.0,4,0.00,,,0.00,,2013-05-27 00:11:00,
2013-05-26 18:21:00,94.0,13.0,29.62,South,175,2.0,8.0,5,0.00,,,0.00,,2013-05-27 00:21:00,
2013-05-26 18:32:00,97.0,4.0,29.61,WSW,246,5.0,9.0,3,0.00,,,0.00,,2013-05-27 00:32:00,
2013-05-26 18:41:00,98.0,4.0,29.62,West,259,5.0,7.0,3,0.00,,,0.00,,2013-05-27 00:41:00,
2013-05-26 18:52:00,98.0,4.0,29.62,West,259,5.0,7.0,3,0.00,,,0.00,,2013-05-27 00:52:00,
2013-05-26 19:01:00,98.0,4.0,29.61,South,184,3.0,7.0,3,0.00,,,0.00,,2013-05-27 01:01:00,
2013-05-26 19:11:00,98.0,4.0,29.61,South,184,3.0,7.0,3,0.00,,,0.00,,2013-05-27 01:11:00,
2013-05-26 19:22:00,98.0,4.0,29.61,WSW,248,6.0,9.0,3,0.00,,,0.00,,2013-05-27 01:22:00,
2013-05-26 19:31:00,96.0,-6.0,29.61,West,281,5.0,12.0,2,0.00,,,0.00,,2013-05-27 01:31:00,
2013-05-26 19:42:00,93.0,1.0,29.62,SW,226,5.0,9.0,3,0.00,,,0.00,,2013-05-27 01:42:00,
2013-05-26 19:52:00,93.0,1.0,29.62,SW,226,5.0,9.0,3,0.00,,,0.00,,2013-05-27 01:52:00,
2013-05-26 20:01:00,89.0,-2.0,29.62,WSW,243,5.0,10.0,3,0.00,,,0.00,,2013-05-27 02:01:00,
2013-05-26 20:11:00,89.0,-2.0,29.62,WSW,243,5.0,10.0,3,0.00,,,0.00,,2013-05-27 02:11:00,
2013-05-26 20:21:00,88.0,9.0,29.62,WSW,239,3.0,5.0,5,0.00,,,0.00,,2013-05-27 02:21:00,
2013-05-26 20:32:00,86.0,7.0,29.63,SW,216,3.0,5.0,5,0.00,,,0.00,,2013-05-27 02:32:00,
2013-05-26 20:42:00,84.0,10.0,29.63,SW,227,1.0,4.0,6,0.00,,,0.00,,2013-05-27 02:42:00,
2013-05-26 20:52:00,84.0,10.0,29.63,SW,227,1.0,4.0,6,0.00,,,0.00,,2013-05-27 02:52:00,
2013-05-26 21:02:00,83.0,9.0,29.63,WSW,248,5.0,6.0,6,0.00,,,0.00,,2013-05-27 03:02:00,
2013-05-26 21:11:00,83.0,9.0,29.63,WSW,248,5.0,6.0,6,0.00,,,0.00,,2013-05-27 03:11:00,
2013-05-26 21:21:00,82.0,8.0,29.64,West,274,2.0,5.0,6,0.00,,,0.00,,2013-05-27 03:21:00,
2013-05-26 21:33:00,81.0,8.0,29.64,NW,310,2.0,4.0,6,0.00,,,0.00,,2013-05-27 03:33:00,
2013-05-26 21:42:00,81.0,8.0,29.64,NW,310,2.0,4.0,6,0.00,,,0.00,,2013-05-27 03:42:00,
2013-05-26 21:53:00,79.0,10.0,29.65,West,259,2.0,4.0,7,0.00,,,0.00,,2013-05-27 03:53:00,
2013-05-26 22:02:00,78.0,9.0,29.65,North,0,0.0,1.0,7,0.00,,,0.00,,2013-05-27 04:02:00,
2013-05-26 22:12:00,78.0,9.0,29.65,North,0,0.0,1.0,7,0.00,,,0.00,,2013-05-27 04:12:00,
2013-05-26 22:23:00,77.0,11.0,29.66,ENE,68,1.0,2.0,8,0.00,,,0.00,,2013-05-27 04:23:00,
2013-05-26 22:33:00,76.0,10.0,29.67,NE,38,2.0,3.0,8,0.00,,,0.00,,2013-05-27 04:33:00,
2013-05-26 22:42:00,75.0,10.0,29.68,WNW,298,2.0,3.0,8,0.00,,,0.00,,2013-05-27 04:42:00,
2013-05-26 22:52:00,75.0,10.0,29.68,WNW,298,2.0,3.0,8,0.00,,,0.00,,2013-05-27 04:52:00,
2013-05-26 23:02:00,74.0,14.0,29.68,East,90,1.0,3.0,10,0.00,,,0.00,,2013-05-27 05:02:00,
2013-05-26 23:12:00,74.0,14.0,29.68,East,90,1.0,3.0,10,0.00,,,0.00,,2013-05-27 05:12:00,
2013-05-26 23:22:00,72.0,15.0,29.69,East,95,2.0,3.0,11,0.00,,,0.00,,2013-05-27 05:22:00,
2013-05-26 23:32:00,71.0,14.0,29.69,East,100,1.0,2.0,11,0.00,,,0.00,,2013-05-27 05:32:00,
2013-05-26 23:42:00,71.0,14.0,29.69,East,100,1.0,2.0,11,0.00,,,0.00,,2013-05-27 05:42:00,
2013-05-26 23:52:00,70.0,15.0,29.69,East,85,2.0,3.0,12,0.00,,,0.00,,2013-05-27 05:52:00,